»·PEaware :: N698J 8W5-KYKM

N698J :: 8W5-KYKM

FLIGHT INFORMATION

Flight Status: Arrived
Operator: Privately registered:
United States
More flights under this callsign
Pilot: Ahmad S. (5672)
Aircraft: BEECH AIRCRAFT BARON
(BE58)
More flights by this aircraft type
Origin: 8W5 Apex Airpark
United States
Destination: KYKM Yakima Air Term/Mcallister
United States
More flights between these airports :: More routes between these airports
Route: +JUVGA V165 CARRO TCM V187 RADDY V4 YKM
File this flight plan on PilotEdge
Remarks:
Altitude:
(Current/Filed)
11,000ft
Speed:
(Current/Filed)
150kts
Departed: 15-May-20 02:55 PM
Arrived: 15-May-20 03:45 PM
Distance/Time
Traveled:
110nm/0:50
Distance/Time
To Go:
Arrived

Flight Plot

Page will automatically refresh every two minutes.


Map Options




Map Legend


Flown Route
Filed Route
Departure Airport
Arrival Airport
Navaid (VOR, NDB)
Fix

Horizontal Profiles

Position Reports

Time Latitude Longitude Heading Altitude Ground
Speed
15-May-20 14:46 47.654325 -122.733311 3 528ft 0kts
15-May-20 14:47 47.654325 -122.733311 3 528ft 0kts
15-May-20 14:48 47.654325 -122.733311 3 528ft 0kts
15-May-20 14:49 47.654325 -122.733311 3 528ft 0kts
15-May-20 14:50 47.654325 -122.733311 3 528ft 0kts
15-May-20 14:51 47.654325 -122.733311 3 528ft 0kts
15-May-20 14:52 47.657953 -122.732520 13 528ft 28kts
15-May-20 14:53 47.660135 -122.731922 278 528ft 0kts
15-May-20 14:54 47.660136 -122.731929 278 528ft 0kts
15-May-20 14:54 47.656986 -122.733219 190 544ft 69kts
15-May-20 14:56 47.624715 -122.748117 198 1882ft 132kts
15-May-20 14:57 47.586250 -122.766208 197 2925ft 153kts
15-May-20 14:57 47.551791 -122.782017 197 3765ft 156kts
15-May-20 14:58 47.510490 -122.800920 197 4759ft 154kts
15-May-20 15:00 47.463241 -122.822508 197 5912ft 150kts
15-May-20 15:00 47.428827 -122.837927 193 6522ft 157kts
15-May-20 15:01 47.385418 -122.846643 185 7228ft 157kts
15-May-20 15:03 47.333929 -122.853621 185 7935ft 159kts
15-May-20 15:03 47.298294 -122.850875 137 8417ft 159kts
15-May-20 15:04 47.287300 -122.788697 112 9034ft 157kts
15-May-20 15:05 47.262102 -122.737329 133 9632ft 154kts
15-May-20 15:06 47.236087 -122.687668 121 10205ft 154kts
15-May-20 15:07 47.214846 -122.632343 121 10706ft 155kts
15-May-20 15:08 47.191333 -122.578039 123 11006ft 165kts
15-May-20 15:09 47.165410 -122.518498 123 11001ft 176kts
15-May-20 15:10 47.146574 -122.452639 98 11003ft 179kts
15-May-20 15:11 47.139932 -122.380072 98 10999ft 179kts
15-May-20 15:12 47.133340 -122.307113 98 10994ft 180kts
15-May-20 15:13 47.126774 -122.234321 98 10992ft 180kts
15-May-20 15:14 47.120436 -122.161365 95 10992ft 179kts
15-May-20 15:15 47.114221 -122.088604 96 10992ft 179kts
15-May-20 15:16 47.110538 -122.015268 93 10989ft 180kts
15-May-20 15:17 47.107234 -121.941940 93 11034ft 178kts
15-May-20 15:18 47.102361 -121.869628 95 11074ft 180kts
15-May-20 15:19 47.097066 -121.795986 95 11068ft 181kts
15-May-20 15:20 47.091807 -121.722454 95 11063ft 181kts
15-May-20 15:21 47.086562 -121.648749 95 11059ft 181kts
15-May-20 15:22 47.081353 -121.575164 95 11053ft 181kts
15-May-20 15:23 47.072170 -121.503231 119 11054ft 180kts
15-May-20 15:24 47.045500 -121.440426 122 11040ft 181kts
15-May-20 15:25 47.018137 -121.378117 123 11041ft 185kts
15-May-20 15:26 46.988974 -121.316131 125 11031ft 182kts
15-May-20 15:27 46.961233 -121.254530 121 11029ft 181kts
15-May-20 15:28 46.934843 -121.191447 121 11025ft 181kts
15-May-20 15:29 46.906199 -121.131025 126 11018ft 181kts
15-May-20 15:30 46.876388 -121.071846 126 11016ft 180kts
15-May-20 15:31 46.846483 -121.012527 126 11014ft 181kts
15-May-20 15:32 46.817582 -120.952356 124 10958ft 184kts
15-May-20 15:33 46.786625 -120.886474 124 10183ft 203kts
15-May-20 15:34 46.753895 -120.818175 125 9390ft 207kts
15-May-20 15:35 46.717389 -120.754627 150 8568ft 199kts
15-May-20 15:36 46.670613 -120.723575 156 7555ft 175kts
15-May-20 15:37 46.626565 -120.695193 156 6546ft 168kts
15-May-20 15:38 46.590833 -120.669935 149 5583ft 144kts
15-May-20 15:39 46.566933 -120.622236 116 4554ft 134kts
15-May-20 15:40 46.548732 -120.575367 126 3117ft 134kts
15-May-20 15:41 46.534729 -120.528206 101 2128ft 120kts
15-May-20 15:42 46.553321 -120.497727 4 1459ft 102kts
15-May-20 15:43 46.564519 -120.527393 288 1182ft 99kts
15-May-20 15:44 46.568771 -120.542473 14 1098ft 0kts
15-May-20 15:45 46.570109 -120.546748 293 1098ft 27kts
15-May-20 15:46 46.570975 -120.548002 184 1098ft 0kts
15-May-20 15:47 46.570975 -120.548002 184 1098ft 0kts
15-May-20 15:48 46.570975 -120.548002 184 1098ft 0kts
15-May-20 15:49 46.570975 -120.548002 184 1098ft 0kts
15-May-20 15:50 46.570975 -120.548002 184 1098ft 0kts
15-May-20 15:51 46.570975 -120.548002 184 1098ft 0kts
15-May-20 15:52 46.570975 -120.548002 184 1098ft 0kts
15-May-20 15:53 46.570975 -120.548002 184 1098ft 0kts
15-May-20 15:54 46.570975 -120.548002 184 1098ft 0kts
15-May-20 15:55 46.570975 -120.548002 184 1098ft 0kts
15-May-20 15:56 46.570975 -120.548002 184 1098ft 0kts
15-May-20 15:57 46.570975 -120.548002 184 1098ft 0kts
15-May-20 15:58 46.570975 -120.548002 184 1098ft 0kts

Navigation Log

Ident Type
Flight plan parsing failed, navigation log unavailable